Time;durP1;ratioP1;P1;durP2;ratioP2;P2;SDS_P1;SDS_P2;PMS_P1;PMS_P2;Temp;Humidity;BMP_temperature;BMP_pressure;BME280_temperature;BME280_humidity;BME280_pressure;Samples;Min_cycle;Max_cycle;Signal;HPM_P1;HPM_P2
2022/04/27 00:00:33;;;;;;;4.90;2.88;;;8.50;99.90;;;;;;5127339;27;20042;-60
2022/04/27 00:03:01;;;;;;;5.35;2.70;;;8.50;99.90;;;;;;5124881;27;20091;-60
2022/04/27 00:05:28;;;;;;;8.20;3.42;;;8.50;99.90;;;;;;5121103;27;20269;-60
2022/04/27 00:07:54;;;;;;;8.75;3.20;;;8.40;99.90;;;;;;5126801;27;20461;-60
2022/04/27 00:10:19;;;;;;;5.65;2.83;;;8.50;99.90;;;;;;5123109;27;20122;-60
2022/04/27 00:12:46;;;;;;;11.70;2.92;;;8.50;99.90;;;;;;5121838;27;20092;-60
2022/04/27 00:15:12;;;;;;;5.72;2.60;;;8.50;99.90;;;;;;5123606;27;20043;-59
2022/04/27 00:17:38;;;;;;;5.43;3.05;;;8.50;99.90;;;;;;5123268;27;20043;-60
2022/04/27 00:20:05;;;;;;;4.70;3.30;;;8.40;99.90;;;;;;5122463;27;20050;-60
2022/04/27 00:22:30;;;;;;;7.00;3.30;;;8.40;99.90;;;;;;5122266;27;20043;-60
2022/04/27 00:25:01;;;;;;;9.98;3.10;;;8.50;99.90;;;;;;5122924;27;20070;-60
2022/04/27 00:27:28;;;;;;;8.00;3.10;;;8.40;99.90;;;;;;5125115;27;20139;-60
2022/04/27 00:29:54;;;;;;;7.10;3.20;;;8.50;99.90;;;;;;5123576;27;20047;-60
2022/04/27 00:32:19;;;;;;;6.72;2.60;;;8.40;99.90;;;;;;5124477;27;20503;-60
2022/04/27 00:34:45;;;;;;;7.20;2.58;;;8.40;99.90;;;;;;5121525;27;20050;-60
2022/04/27 00:37:11;;;;;;;6.15;2.75;;;8.40;99.90;;;;;;5124665;27;20054;-60
2022/04/27 00:39:36;;;;;;;4.82;2.80;;;8.40;99.90;;;;;;5124827;27;20051;-60
2022/04/27 00:42:12;;;;;;;4.95;2.20;;;8.40;99.90;;;;;;5122741;27;20043;-60
2022/04/27 00:44:37;;;;;;;4.35;2.65;;;8.40;99.90;;;;;;5122311;27;20485;-60
2022/04/27 00:47:03;;;;;;;3.47;2.10;;;8.40;99.90;;;;;;5124038;27;20050;-60
2022/04/27 00:49:29;;;;;;;4.22;2.05;;;8.40;99.90;;;;;;5120451;27;20036;-60
2022/04/27 00:51:55;;;;;;;5.35;2.17;;;8.40;99.90;;;;;;5122616;27;20046;-60
2022/04/27 00:54:22;;;;;;;2.47;1.95;;;8.40;99.90;;;;;;5117690;27;20387;-60
2022/04/27 00:56:51;;;;;;;6.07;2.13;;;8.40;99.90;;;;;;5123548;27;20043;-60
2022/04/27 00:59:18;;;;;;;5.55;2.30;;;8.40;99.90;;;;;;5122685;27;20315;-60
2022/04/27 01:01:44;;;;;;;5.05;2.03;;;8.40;99.90;;;;;;5120478;27;20051;-60
2022/04/27 01:04:10;;;;;;;2.60;1.48;;;8.30;99.90;;;;;;5122573;27;20039;-60
2022/04/27 01:06:37;;;;;;;3.58;2.10;;;8.40;99.90;;;;;;5122400;27;20066;-60
2022/04/27 01:09:03;;;;;;;4.05;2.17;;;8.40;99.90;;;;;;5120722;27;20500;-60
2022/04/27 01:11:31;;;;;;;3.45;2.22;;;8.30;99.90;;;;;;5125592;27;20058;-60
2022/04/27 01:13:56;;;;;;;2.35;1.88;;;8.30;99.90;;;;;;5120000;27;20408;-60
2022/04/27 01:16:22;;;;;;;4.80;2.33;;;8.40;99.90;;;;;;5123409;27;20043;-60
2022/04/27 01:18:49;;;;;;;6.78;1.98;;;8.30;99.90;;;;;;5119160;27;20051;-60
2022/04/27 01:21:16;;;;;;;8.75;2.28;;;8.30;99.90;;;;;;5122001;27;20042;-60
2022/04/27 01:23:42;;;;;;;3.97;2.25;;;8.30;99.90;;;;;;5123379;27;20315;-60
2022/04/27 01:26:08;;;;;;;3.42;1.77;;;8.30;99.90;;;;;;5122276;27;20494;-60
2022/04/27 01:28:35;;;;;;;3.30;2.47;;;8.30;99.90;;;;;;5124367;27;20047;-60
2022/04/27 01:31:03;;;;;;;8.07;2.78;;;8.30;99.90;;;;;;5122149;27;20225;-60
2022/04/27 01:33:30;;;;;;;8.60;2.50;;;8.30;99.90;;;;;;5121185;27;20058;-60
2022/04/27 01:35:58;;;;;;;7.97;2.45;;;8.20;99.90;;;;;;5118305;27;20047;-60
2022/04/27 01:38:24;;;;;;;2.60;2.10;;;8.20;99.90;;;;;;5120775;27;20520;-60
2022/04/27 01:40:54;;;;;;;5.15;2.30;;;8.20;99.90;;;;;;5123612;27;20043;-60
2022/04/27 01:43:19;;;;;;;4.47;2.30;;;8.20;99.90;;;;;;5122936;27;20128;-60
2022/04/27 01:45:45;;;;;;;7.07;2.70;;;8.20;99.90;;;;;;5118326;27;20122;-60
2022/04/27 01:48:11;;;;;;;3.95;2.28;;;8.20;99.90;;;;;;5123322;27;20117;-60
2022/04/27 01:50:37;;;;;;;6.50;2.83;;;8.20;99.90;;;;;;5120700;27;20417;-60
2022/04/27 01:55:48;;;;;;;4.70;2.40;;;8.20;99.90;;;;;;5120814;27;20385;-60
2022/04/27 01:58:14;;;;;;;14.07;2.38;;;8.20;99.90;;;;;;5123032;27;20050;-60
2022/04/27 02:00:39;;;;;;;3.50;2.63;;;8.20;99.90;;;;;;5121539;27;20039;-60
2022/04/27 02:03:05;;;;;;;4.28;1.85;;;8.20;99.90;;;;;;5119400;27;20058;-60
2022/04/27 02:05:31;;;;;;;4.93;2.10;;;8.20;99.90;;;;;;5123982;27;20047;-60
2022/04/27 02:07:56;;;;;;;4.55;2.70;;;8.20;99.90;;;;;;5121912;27;20392;-60
2022/04/27 02:10:22;;;;;;;4.80;2.25;;;8.20;99.90;;;;;;5120990;27;20103;-60
2022/04/27 02:12:48;;;;;;;6.50;2.42;;;8.20;99.90;;;;;;5123217;27;20042;-60
2022/04/27 02:15:13;;;;;;;3.03;2.00;;;8.20;99.90;;;;;;5125319;27;20047;-60
2022/04/27 02:17:39;;;;;;;4.05;2.15;;;8.20;99.90;;;;;;5122113;27;20046;-60
2022/04/27 02:20:05;;;;;;;4.20;2.22;;;8.10;99.90;;;;;;5125234;27;20610;-60
2022/04/27 02:22:34;;;;;;;5.40;2.70;;;8.10;99.90;;;;;;5124894;27;20088;-60
2022/04/27 02:25:01;;;;;;;3.42;2.60;;;8.10;99.90;;;;;;5123967;27;20054;-60
2022/04/27 02:27:27;;;;;;;4.32;2.13;;;8.10;99.90;;;;;;5126312;27;20044;-60
2022/04/27 02:29:54;;;;;;;6.78;2.40;;;8.10;99.90;;;;;;5124454;27;20115;-60
2022/04/27 02:32:19;;;;;;;4.05;2.70;;;8.10;99.90;;;;;;5125402;27;20057;-61
2022/04/27 02:34:45;;;;;;;4.28;2.25;;;8.10;99.90;;;;;;5124372;28;20595;-60
2022/04/27 02:37:11;;;;;;;3.25;2.33;;;8.10;99.90;;;;;;5124606;28;20047;-60
2022/04/27 02:39:36;;;;;;;9.40;2.40;;;8.10;99.90;;;;;;5124691;28;20066;-61
2022/04/27 02:42:03;;;;;;;3.25;2.22;;;8.10;99.90;;;;;;5124608;28;20434;-60
2022/04/27 02:44:28;;;;;;;4.53;2.65;;;8.00;99.90;;;;;;5124736;27;20374;-61
2022/04/27 02:46:54;;;;;;;4.05;2.40;;;8.00;99.90;;;;;;5124738;28;20058;-61
2022/04/27 02:52:04;;;;;;;4.70;2.40;;;8.00;99.90;;;;;;5123165;28;20043;-61
2022/04/27 02:54:30;;;;;;;3.95;2.28;;;8.00;99.90;;;;;;5124918;27;20473;-61
2022/04/27 02:56:56;;;;;;;4.93;3.10;;;8.00;99.90;;;;;;5129021;27;20051;-61
2022/04/27 02:59:22;;;;;;;2.67;2.45;;;8.00;99.90;;;;;;5128894;27;20039;-60
2022/04/27 03:01:48;;;;;;;8.02;2.50;;;8.00;99.90;;;;;;5129241;27;20035;-61
2022/04/27 03:04:14;;;;;;;4.28;2.50;;;8.00;99.90;;;;;;5129358;27;20039;-61
2022/04/27 03:06:40;;;;;;;5.82;2.28;;;8.00;99.90;;;;;;5127530;27;20574;-61
2022/04/27 03:09:06;;;;;;;7.45;2.90;;;8.00;99.90;;;;;;5128869;27;20528;-61
2022/04/27 03:11:32;;;;;;;6.38;2.55;;;8.00;99.90;;;;;;5129335;27;20039;-61
2022/04/27 03:13:57;;;;;;;8.20;2.85;;;8.00;99.90;;;;;;5127507;27;20379;-61
2022/04/27 03:16:23;;;;;;;5.50;2.72;;;8.00;99.90;;;;;;5129404;27;20035;-60
2022/04/27 03:18:49;;;;;;;4.13;2.67;;;8.00;99.90;;;;;;5129217;27;20054;-61
2022/04/27 03:21:14;;;;;;;4.18;2.92;;;8.00;99.90;;;;;;5127759;27;20035;-61
2022/04/27 03:23:40;;;;;;;6.55;2.85;;;8.00;99.90;;;;;;5128053;27;20096;-60
2022/04/27 03:26:06;;;;;;;5.63;3.20;;;8.00;99.90;;;;;;5126515;27;20075;-60
2022/04/27 03:28:31;;;;;;;3.50;2.92;;;8.00;99.90;;;;;;5128223;27;20043;-60
2022/04/27 03:30:57;;;;;;;5.50;3.05;;;7.90;99.90;;;;;;5128445;27;20035;-61
2022/04/27 03:33:23;;;;;;;4.65;3.13;;;7.90;99.90;;;;;;5127669;27;20101;-60
2022/04/27 03:35:48;;;;;;;3.75;3.40;;;8.00;99.90;;;;;;5125905;27;20099;-60
2022/04/27 03:38:15;;;;;;;3.35;2.60;;;8.00;99.90;;;;;;5128372;27;20046;-61
2022/04/27 03:40:41;;;;;;;3.35;3.05;;;8.00;99.90;;;;;;5128131;27;20089;-61
2022/04/27 03:43:07;;;;;;;6.47;3.35;;;8.00;99.90;;;;;;5127850;27;20239;-61
2022/04/27 03:45:33;;;;;;;4.22;2.75;;;7.90;99.90;;;;;;5127870;27;20050;-60
2022/04/27 03:47:59;;;;;;;7.70;3.30;;;7.90;99.90;;;;;;5126940;27;20068;-61
2022/04/27 03:50:25;;;;;;;4.25;3.05;;;7.90;99.90;;;;;;5127370;27;20122;-60
2022/04/27 03:52:51;;;;;;;4.63;3.08;;;7.90;99.90;;;;;;5120357;27;20133;-60
2022/04/27 03:55:16;;;;;;;5.40;3.42;;;7.90;99.90;;;;;;5126513;27;20047;-61
2022/04/27 03:57:42;;;;;;;5.82;3.45;;;7.90;99.90;;;;;;5125677;27;20212;-61
2022/04/27 04:00:09;;;;;;;5.90;2.97;;;7.90;99.90;;;;;;5127325;27;20065;-61
2022/04/27 04:02:36;;;;;;;4.40;3.05;;;7.90;99.90;;;;;;5127124;27;20058;-60
2022/04/27 04:05:03;;;;;;;5.10;3.50;;;7.90;99.90;;;;;;5127404;27;20057;-60
2022/04/27 04:07:28;;;;;;;5.78;4.18;;;7.80;99.90;;;;;;5127211;27;20071;-60
2022/04/27 04:09:54;;;;;;;6.07;3.38;;;7.80;99.90;;;;;;5124613;27;20524;-61
2022/04/27 04:12:20;;;;;;;3.33;3.03;;;7.80;99.90;;;;;;5122013;27;20035;-61
2022/04/27 04:14:45;;;;;;;8.48;3.97;;;7.80;99.90;;;;;;5120651;27;20056;-61
2022/04/27 04:17:11;;;;;;;3.58;2.92;;;7.80;99.90;;;;;;5119929;27;20043;-61
2022/04/27 04:19:36;;;;;;;4.07;3.20;;;7.80;99.90;;;;;;5117313;27;20099;-61
2022/04/27 04:22:02;;;;;;;5.13;3.38;;;7.80;99.90;;;;;;5122801;27;20512;-61
2022/04/27 04:24:28;;;;;;;4.68;2.97;;;7.80;99.90;;;;;;5116635;27;20413;-60
2022/04/27 04:29:45;;;;;;;4.63;3.30;;;7.80;99.90;;;;;;5105676;27;20044;-61
2022/04/27 04:32:10;;;;;;;5.35;3.33;;;7.80;99.90;;;;;;5121942;27;20047;-60
2022/04/27 04:34:36;;;;;;;3.50;3.20;;;7.70;99.90;;;;;;5123350;27;20051;-61
2022/04/27 04:37:02;;;;;;;3.30;2.80;;;7.80;99.90;;;;;;5115364;27;20143;-60
2022/04/27 04:39:27;;;;;;;4.97;2.85;;;7.80;99.90;;;;;;5118742;27;20107;-61
2022/04/27 04:41:53;;;;;;;3.67;3.10;;;7.80;99.90;;;;;;5117864;27;20393;-60
2022/04/27 04:44:19;;;;;;;3.05;2.85;;;7.80;99.90;;;;;;5115593;27;20048;-60
2022/04/27 04:46:45;;;;;;;7.93;3.58;;;7.80;99.90;;;;;;5122627;27;20078;-60
2022/04/27 04:49:11;;;;;;;5.72;3.90;;;7.80;99.90;;;;;;5120733;27;20047;-60
2022/04/27 04:51:37;;;;;;;4.68;3.53;;;7.80;99.90;;;;;;5118149;27;20477;-60
2022/04/27 04:54:03;;;;;;;4.20;3.17;;;7.80;99.90;;;;;;5120259;27;20543;-61
2022/04/27 04:56:29;;;;;;;5.53;3.35;;;7.80;99.90;;;;;;5119138;27;20048;-60
2022/04/27 04:58:55;;;;;;;7.05;3.17;;;7.80;99.90;;;;;;5120586;27;20123;-61
2022/04/27 05:01:21;;;;;;;6.03;4.18;;;7.80;99.90;;;;;;5125008;27;20118;-61
2022/04/27 05:03:46;;;;;;;6.65;4.18;;;7.80;99.90;;;;;;5123178;27;20126;-61
2022/04/27 05:06:12;;;;;;;6.65;3.33;;;7.80;99.90;;;;;;5120360;27;20086;-61
2022/04/27 05:08:38;;;;;;;5.95;3.30;;;7.90;99.90;;;;;;5121320;27;20045;-61
2022/04/27 05:11:04;;;;;;;12.88;4.07;;;7.90;99.90;;;;;;5121547;27;20039;-61
2022/04/27 05:13:29;;;;;;;4.68;3.30;;;7.80;99.90;;;;;;5118801;27;20031;-61
2022/04/27 05:15:56;;;;;;;7.35;3.78;;;7.90;99.90;;;;;;5124191;27;20035;-61
2022/04/27 05:18:22;;;;;;;4.18;3.78;;;7.90;99.90;;;;;;5119255;27;20080;-60
2022/04/27 05:20:48;;;;;;;7.22;3.67;;;7.90;99.90;;;;;;5120148;27;20102;-61
2022/04/27 05:23:14;;;;;;;4.22;3.58;;;7.90;99.90;;;;;;5122197;27;20035;-61
2022/04/27 05:25:40;;;;;;;6.55;3.25;;;8.00;99.90;;;;;;5122425;27;20799;-61
2022/04/27 05:28:06;;;;;;;9.13;3.80;;;8.00;99.90;;;;;;5115179;27;20496;-61
2022/04/27 05:33:17;;;;;;;5.07;3.90;;;8.00;99.90;;;;;;5123403;27;20055;-61
2022/04/27 05:35:43;;;;;;;9.18;3.67;;;8.00;99.90;;;;;;5116313;27;20047;-61
2022/04/27 05:38:09;;;;;;;3.72;3.33;;;8.10;99.90;;;;;;5117222;27;20130;-61
2022/04/27 05:40:36;;;;;;;5.28;3.33;;;8.10;99.90;;;;;;5122626;27;20080;-60
2022/04/27 05:43:05;;;;;;;4.75;3.72;;;8.10;99.90;;;;;;5122026;27;20035;-61
2022/04/27 05:45:34;;;;;;;3.35;3.05;;;8.10;99.90;;;;;;5119432;27;20044;-61
2022/04/27 05:48:00;;;;;;;6.07;3.15;;;8.20;99.90;;;;;;5119056;27;20062;-61
2022/04/27 05:50:25;;;;;;;4.20;3.33;;;8.20;99.90;;;;;;5119033;27;20054;-61
2022/04/27 05:52:54;;;;;;;4.70;3.42;;;8.20;99.90;;;;;;5119738;27;20032;-61
2022/04/27 05:55:20;;;;;;;4.03;3.38;;;8.30;99.90;;;;;;5120235;27;20043;-61
2022/04/27 05:57:46;;;;;;;5.07;3.40;;;8.30;99.90;;;;;;5122695;27;20050;-61
2022/04/27 06:00:12;;;;;;;5.35;3.10;;;8.30;99.90;;;;;;5123551;27;20280;-61
2022/04/27 06:02:38;;;;;;;6.10;2.83;;;8.40;99.90;;;;;;5119013;27;20051;-61
2022/04/27 06:05:05;;;;;;;4.85;3.03;;;8.40;99.90;;;;;;5118899;27;20080;-61
2022/04/27 06:07:31;;;;;;;5.53;2.78;;;8.50;99.90;;;;;;5119547;27;20043;-61
2022/04/27 06:09:56;;;;;;;3.38;2.88;;;8.50;99.90;;;;;;5118921;27;20085;-61
2022/04/27 06:12:25;;;;;;;9.00;2.38;;;8.50;99.90;;;;;;5117543;27;20028;-61
2022/04/27 06:14:51;;;;;;;4.28;2.70;;;8.60;99.90;;;;;;5116910;27;20095;-61
2022/04/27 06:17:17;;;;;;;4.22;2.33;;;8.60;99.90;;;;;;5121512;27;20390;-61
2022/04/27 06:19:43;;;;;;;2.63;2.42;;;8.60;99.90;;;;;;5121382;27;20055;-61
2022/04/27 06:22:08;;;;;;;4.25;3.10;;;8.60;99.90;;;;;;5116900;27;20031;-61
2022/04/27 06:24:34;;;;;;;5.22;2.47;;;8.70;99.90;;;;;;5121760;27;20085;-61
2022/04/27 06:27:00;;;;;;;2.78;2.30;;;8.70;99.90;;;;;;5122653;27;20567;-61
2022/04/27 06:29:25;;;;;;;4.90;2.80;;;8.70;99.90;;;;;;5117546;27;20095;-60
2022/04/27 06:31:51;;;;;;;7.45;2.60;;;8.70;99.90;;;;;;5121921;27;20134;-60
2022/04/27 06:34:16;;;;;;;6.30;2.67;;;8.80;99.90;;;;;;5118858;27;20070;-60
2022/04/27 06:36:42;;;;;;;2.78;1.90;;;8.80;99.90;;;;;;5121742;28;20064;-60
2022/04/27 06:39:12;;;;;;;6.38;2.45;;;8.90;99.90;;;;;;5117899;28;20043;-60
2022/04/27 06:41:38;;;;;;;4.10;1.98;;;8.90;99.90;;;;;;5116683;27;20576;-60
2022/04/27 06:44:03;;;;;;;3.90;1.92;;;8.90;99.90;;;;;;5121478;27;21398;-60
2022/04/27 06:46:29;;;;;;;4.35;2.88;;;8.90;99.90;;;;;;5120864;27;20042;-61
2022/04/27 06:48:55;;;;;;;6.53;2.67;;;8.90;99.90;;;;;;5121009;28;20397;-60
2022/04/27 06:51:22;;;;;;;2.67;1.95;;;9.00;99.90;;;;;;5122019;27;20043;-61
2022/04/27 06:53:47;;;;;;;8.45;2.70;;;8.90;99.90;;;;;;5119930;28;20098;-60
2022/04/27 06:56:16;;;;;;;2.33;2.13;;;9.00;99.90;;;;;;5120223;28;20466;-60
2022/04/27 06:58:42;;;;;;;3.67;2.30;;;9.00;99.90;;;;;;5115058;27;20493;-60
2022/04/27 07:01:07;;;;;;;7.28;2.85;;;9.10;99.90;;;;;;5118555;27;20092;-60
2022/04/27 07:03:36;;;;;;;5.15;2.60;;;9.10;99.90;;;;;;5120753;28;20142;-61
2022/04/27 07:06:02;;;;;;;3.75;1.70;;;9.10;99.90;;;;;;5118222;28;20055;-60
2022/04/27 07:08:29;;;;;;;2.50;1.85;;;9.10;99.90;;;;;;5122068;28;20345;-60
2022/04/27 07:10:55;;;;;;;3.30;2.15;;;9.10;99.90;;;;;;5116680;28;20070;-60
2022/04/27 07:13:23;;;;;;;4.28;2.05;;;9.10;99.90;;;;;;5119481;27;20448;-61
2022/04/27 07:15:49;;;;;;;3.20;1.83;;;9.10;99.90;;;;;;5117480;27;20035;-60
2022/04/27 07:18:14;;;;;;;4.22;2.10;;;9.10;99.90;;;;;;5115209;27;20036;-61
2022/04/27 07:20:40;;;;;;;10.02;2.72;;;9.10;99.90;;;;;;5116064;28;20497;-61
2022/04/27 07:23:06;;;;;;;2.22;1.80;;;9.20;99.90;;;;;;5117963;28;20055;-61
2022/04/27 07:25:31;;;;;;;4.18;1.50;;;9.20;99.90;;;;;;5115150;28;20435;-61
2022/04/27 07:27:57;;;;;;;7.05;2.10;;;9.20;99.90;;;;;;5112897;27;20417;-61
2022/04/27 07:30:23;;;;;;;5.15;2.20;;;9.30;99.90;;;;;;5121644;28;20043;-61
2022/04/27 07:32:49;;;;;;;7.28;2.40;;;9.30;99.90;;;;;;5124094;28;20439;-61
2022/04/27 07:35:18;;;;;;;5.65;2.08;;;9.30;99.90;;;;;;5123728;27;20043;-61
2022/04/27 07:37:43;;;;;;;6.35;1.67;;;9.40;99.90;;;;;;5123090;28;20047;-60
2022/04/27 07:40:11;;;;;;;6.03;2.00;;;9.40;99.90;;;;;;5118095;27;20039;-60
2022/04/27 07:42:37;;;;;;;4.38;2.17;;;9.40;99.90;;;;;;5116905;27;20110;-60
2022/04/27 07:45:05;;;;;;;3.28;2.10;;;9.50;99.90;;;;;;5120881;27;20178;-60
2022/04/27 07:47:41;;;;;;;4.30;1.92;;;9.50;99.90;;;;;;5124602;27;20035;-60
2022/04/27 07:50:09;;;;;;;2.88;2.20;;;9.50;99.90;;;;;;5120001;27;20489;-60
2022/04/27 07:52:35;;;;;;;3.00;2.10;;;9.60;99.90;;;;;;5126935;27;20422;-60
2022/04/27 07:55:01;;;;;;;3.47;2.00;;;9.60;99.90;;;;;;5121870;27;20079;-60
2022/04/27 07:57:31;;;;;;;6.15;2.00;;;9.60;99.90;;;;;;5127400;27;20135;-60
2022/04/27 07:59:57;;;;;;;6.00;2.30;;;9.60;99.90;;;;;;5118215;27;20092;-61
2022/04/27 08:02:22;;;;;;;4.50;2.17;;;9.60;99.90;;;;;;5114935;27;20732;-63
2022/04/27 08:04:48;;;;;;;5.45;1.95;;;9.70;99.90;;;;;;5109328;28;20075;-62
2022/04/27 08:07:14;;;;;;;3.65;1.80;;;9.70;99.90;;;;;;5116181;27;20054;-60
2022/04/27 08:09:39;;;;;;;5.55;2.17;;;9.70;99.90;;;;;;5127432;27;20054;-60
2022/04/27 08:12:05;;;;;;;5.60;1.90;;;9.80;99.90;;;;;;5126589;27;20078;-59
2022/04/27 08:14:31;;;;;;;3.92;1.67;;;9.80;99.90;;;;;;5123403;27;20075;-59
2022/04/27 08:16:59;;;;;;;8.40;2.75;;;9.80;99.90;;;;;;5117793;27;20055;-59
2022/04/27 08:19:25;;;;;;;5.82;2.03;;;9.80;99.90;;;;;;5120138;27;20053;-64
2022/04/27 08:21:51;;;;;;;6.35;1.90;;;9.80;99.90;;;;;;5117324;27;20378;-62
2022/04/27 08:24:19;;;;;;;6.80;2.10;;;9.80;99.90;;;;;;5117073;27;20062;-61
2022/04/27 08:26:45;;;;;;;4.65;1.90;;;9.80;99.90;;;;;;5113715;27;20043;-61
2022/04/27 08:29:11;;;;;;;4.65;1.80;;;9.80;99.90;;;;;;5114012;27;20051;-58
2022/04/27 08:31:36;;;;;;;5.55;1.67;;;9.80;99.90;;;;;;5116276;27;20048;-60
2022/04/27 08:34:02;;;;;;;4.53;1.85;;;9.80;99.90;;;;;;5116462;27;20458;-61
2022/04/27 08:36:28;;;;;;;5.60;1.67;;;9.80;99.90;;;;;;5110648;27;20051;-59
2022/04/27 08:38:54;;;;;;;9.40;2.40;;;9.80;99.90;;;;;;5121672;27;20036;-62
2022/04/27 08:41:20;;;;;;;7.43;2.65;;;9.80;99.90;;;;;;5124493;27;20400;-64
2022/04/27 08:43:46;;;;;;;6.30;2.10;;;9.70;99.90;;;;;;5118749;27;20035;-62
2022/04/27 08:46:13;;;;;;;11.18;2.92;;;9.70;99.90;;;;;;5111906;27;20318;-62
2022/04/27 08:48:38;;;;;;;7.20;2.28;;;9.70;99.90;;;;;;5119684;27;20054;-60
2022/04/27 08:51:05;;;;;;;8.55;2.60;;;9.70;99.90;;;;;;5117133;27;20031;-59
2022/04/27 08:53:32;;;;;;;11.27;2.53;;;9.70;99.90;;;;;;5117497;27;20054;-60
2022/04/27 08:55:57;;;;;;;8.43;2.53;;;9.70;99.90;;;;;;5112020;27;20047;-59
2022/04/27 08:58:24;;;;;;;7.35;2.50;;;9.70;99.90;;;;;;5114947;27;20047;-59
2022/04/27 09:00:50;;;;;;;11.40;2.50;;;9.70;99.90;;;;;;5117882;27;20051;-60
2022/04/27 09:03:23;;;;;;;12.23;2.85;;;9.70;99.90;;;;;;5110724;27;20035;-60
2022/04/27 09:05:53;;;;;;;4.15;1.60;;;9.60;99.90;;;;;;5118394;27;20043;-60
2022/04/27 09:08:19;;;;;;;6.53;2.22;;;9.60;99.90;;;;;;5123105;27;20321;-60
2022/04/27 09:10:45;;;;;;;11.32;2.45;;;9.70;99.90;;;;;;5120962;27;20697;-59
2022/04/27 09:13:11;;;;;;;13.70;2.53;;;9.70;99.90;;;;;;5113370;27;20099;-59
2022/04/27 09:15:36;;;;;;;5.03;2.25;;;9.70;99.90;;;;;;5122359;27;20043;-60
2022/04/27 09:21:02;;;;;;;6.30;2.35;;;9.70;99.90;;;;;;5122895;27;20043;-60
2022/04/27 09:23:37;;;;;;;12.43;2.33;;;9.70;99.90;;;;;;5120829;27;20050;-60
2022/04/27 09:26:22;;;;;;;8.20;2.63;;;9.70;99.90;;;;;;5121191;27;20039;-59
2022/04/27 09:28:49;;;;;;;5.63;1.95;;;9.80;99.90;;;;;;5119565;27;20043;-60
2022/04/27 09:31:44;;;;;;;9.38;2.17;;;9.80;99.90;;;;;;5119021;27;20089;-60
2022/04/27 09:34:31;;;;;;;8.15;2.88;;;9.80;99.90;;;;;;5102437;27;20051;-60
2022/04/27 09:37:19;;;;;;;10.27;2.17;;;9.80;99.90;;;;;;5121259;27;20454;-60
2022/04/27 09:39:59;;;;;;;7.72;2.33;;;9.80;99.90;;;;;;5122008;27;20092;-59
2022/04/27 09:42:30;;;;;;;9.75;1.92;;;9.90;99.90;;;;;;5122319;27;21650;-60
2022/04/27 09:45:16;;;;;;;10.48;2.15;;;9.90;99.90;;;;;;5122005;27;20132;-60
2022/04/27 09:47:49;;;;;;;8.68;2.47;;;10.00;99.90;;;;;;5120333;27;20578;-58
2022/04/27 09:50:16;;;;;;;8.45;2.13;;;10.00;99.90;;;;;;5120957;27;20122;-60
2022/04/27 09:52:43;;;;;;;6.97;1.98;;;10.00;99.90;;;;;;5122693;27;20039;-60
2022/04/27 09:55:10;;;;;;;12.80;2.33;;;10.00;99.90;;;;;;5122652;27;20051;-59
2022/04/27 09:57:41;;;;;;;6.82;2.10;;;10.10;99.90;;;;;;5122833;27;20501;-60
2022/04/27 10:00:08;;;;;;;10.52;2.30;;;10.10;99.90;;;;;;5117671;27;20615;-62
2022/04/27 10:02:35;;;;;;;13.90;7.25;;;10.20;99.90;;;;;;5116514;27;20035;-66
2022/04/27 10:05:01;;;;;;;19.60;10.85;;;10.20;99.90;;;;;;5117099;27;20505;-66
2022/04/27 10:07:30;;;;;;;19.83;9.93;;;10.20;99.90;;;;;;5120463;27;20497;-66
2022/04/27 10:09:57;;;;;;;13.77;10.00;;;10.20;99.90;;;;;;5119303;27;20130;-63
2022/04/27 10:12:22;;;;;;;18.42;4.97;;;10.20;99.90;;;;;;5117445;27;20484;-63
2022/04/27 10:14:48;;;;;;;11.25;2.80;;;10.30;99.90;;;;;;5122755;27;20126;-62
2022/04/27 10:17:15;;;;;;;8.30;2.13;;;10.30;99.90;;;;;;5122637;27;20374;-65
2022/04/27 10:19:47;;;;;;;8.23;2.40;;;10.30;99.90;;;;;;5112982;27;20051;-65
2022/04/27 10:22:26;;;;;;;6.05;2.22;;;10.40;99.90;;;;;;5117120;27;20047;-65
2022/04/27 10:24:55;;;;;;;8.30;2.28;;;10.50;99.90;;;;;;5118301;27;20044;-65
2022/04/27 10:27:33;;;;;;;6.78;1.98;;;10.50;99.90;;;;;;5114141;27;20655;-65
2022/04/27 10:30:02;;;;;;;10.52;2.35;;;10.50;99.90;;;;;;5118509;27;20404;-65
2022/04/27 10:32:47;;;;;;;11.88;2.40;;;10.50;99.90;;;;;;5117592;27;20114;-63
2022/04/27 10:35:12;;;;;;;8.82;2.05;;;10.60;99.90;;;;;;5115702;27;20366;-63
2022/04/27 10:37:59;;;;;;;13.75;2.40;;;10.60;99.90;;;;;;5107305;28;20051;-63
2022/04/27 10:40:33;;;;;;;7.78;2.10;;;10.70;99.90;;;;;;5119445;28;20054;-63
2022/04/27 10:43:06;;;;;;;8.63;2.42;;;10.60;99.90;;;;;;5121627;28;20059;-63
2022/04/27 10:45:37;;;;;;;5.97;1.73;;;10.70;99.90;;;;;;5121991;28;20046;-63
2022/04/27 10:48:14;;;;;;;8.02;2.30;;;10.70;99.90;;;;;;5113489;28;20044;-63
2022/04/27 10:50:39;;;;;;;7.10;1.70;;;10.70;99.90;;;;;;5115763;28;20119;-63
2022/04/27 10:53:21;;;;;;;6.25;1.73;;;10.70;99.90;;;;;;5115248;28;20167;-63
2022/04/27 10:55:53;;;;;;;11.18;2.25;;;10.80;99.90;;;;;;5112951;28;20047;-63
2022/04/27 10:58:22;;;;;;;;;;;10.90;99.90;;;;;;5113646;28;20050;-63
2022/04/27 11:01:03;;;;;;;9.50;2.38;;;11.00;99.90;;;;;;5108457;28;19973;-63
2022/04/27 11:03:39;;;;;;;6.50;1.75;;;11.00;99.90;;;;;;5117000;28;20058;-63
2022/04/27 11:06:10;;;;;;;10.70;2.25;;;11.10;99.90;;;;;;5100518;28;20696;-63
2022/04/27 11:09:15;;;;;;;5.45;1.95;;;11.10;99.90;;;;;;5114573;28;20081;-63
2022/04/27 11:11:55;;;;;;;7.47;1.80;;;11.10;99.90;;;;;;5105677;28;20047;-63
2022/04/27 11:14:26;;;;;;;7.00;1.70;;;11.30;99.90;;;;;;5122054;28;20047;-63
2022/04/27 11:16:52;;;;;;;7.13;1.97;;;11.40;99.90;;;;;;5123391;27;20080;-63
2022/04/27 11:19:18;;;;;;;7.20;2.38;;;11.60;99.90;;;;;;5108146;28;20047;-63
2022/04/27 11:21:46;;;;;;;8.52;2.13;;;11.70;99.90;;;;;;5110415;27;20040;-63
2022/04/27 11:24:13;;;;;;;11.48;2.25;;;11.90;99.90;;;;;;5114958;27;20047;-63
2022/04/27 11:26:47;;;;;;;17.00;2.03;;;11.90;99.90;;;;;;5112281;27;20047;-63
2022/04/27 11:29:14;;;;;;;6.53;2.05;;;12.00;99.90;;;;;;5114823;27;20195;-65
2022/04/27 11:31:42;;;;;;;5.32;1.77;;;12.20;99.90;;;;;;5122535;27;20485;-66
2022/04/27 11:34:24;;;;;;;10.60;3.03;;;12.30;99.90;;;;;;5109394;28;20055;-67
2022/04/27 11:36:51;;;;;;;10.13;2.08;;;12.30;99.90;;;;;;5110209;27;20532;-59
2022/04/27 11:39:24;;;;;;;7.07;2.00;;;12.20;99.90;;;;;;5109529;28;20040;-60
2022/04/27 11:42:02;;;;;;;8.05;1.75;;;12.30;99.90;;;;;;5110086;28;20122;-60
2022/04/27 11:44:29;;;;;;;6.90;1.77;;;12.20;99.90;;;;;;5110005;28;20512;-60
2022/04/27 11:46:56;;;;;;;13.25;2.70;;;12.10;99.90;;;;;;5109329;28;20043;-60
2022/04/27 11:49:23;;;;;;;9.93;2.67;;;12.00;99.90;;;;;;5109561;28;20517;-59
2022/04/27 11:51:49;;;;;;;7.45;2.67;;;12.00;99.90;;;;;;5110427;28;20051;-59
2022/04/27 11:54:28;;;;;;;15.60;2.70;;;12.00;99.90;;;;;;5119227;27;20039;-60
2022/04/27 11:56:56;;;;;;;8.73;1.90;;;12.00;99.90;;;;;;5132052;27;20134;-59
2022/04/27 11:59:23;;;;;;;6.50;2.17;;;12.10;99.90;;;;;;5130997;27;20046;-63
2022/04/27 12:01:53;;;;;;;4.40;1.90;;;12.20;99.90;;;;;;5130921;27;20093;-63
2022/04/27 12:04:19;;;;;;;9.07;2.17;;;12.20;99.90;;;;;;5110393;27;20043;-63
2022/04/27 12:06:45;;;;;;;8.20;1.75;;;12.10;99.90;;;;;;5110568;28;20048;-63
2022/04/27 12:09:18;;;;;;;5.57;2.15;;;12.10;99.90;;;;;;5127449;27;20115;-59
2022/04/27 12:11:44;;;;;;;8.30;1.88;;;12.10;99.90;;;;;;5125153;27;20054;-59
2022/04/27 12:14:10;;;;;;;8.32;2.08;;;12.20;99.90;;;;;;5126823;27;20075;-68
2022/04/27 12:16:42;;;;;;;11.55;1.98;;;12.20;99.90;;;;;;5121546;27;20122;-59
2022/04/27 12:19:08;;;;;;;11.83;2.73;;;12.20;99.90;;;;;;5118570;27;21127;-60
2022/04/27 12:21:33;;;;;;;10.52;2.15;;;12.20;99.90;;;;;;5129917;27;20325;-64
2022/04/27 12:24:17;;;;;;;4.30;1.80;;;12.30;99.90;;;;;;5126600;27;20493;-63
2022/04/27 12:26:43;;;;;;;4.90;1.85;;;12.20;99.90;;;;;;5127572;27;20059;-63
2022/04/27 12:29:08;;;;;;;8.40;2.45;;;12.20;99.90;;;;;;5107969;27;20055;-63
2022/04/27 12:31:37;;;;;;;9.48;2.25;;;12.20;99.90;;;;;;5119443;27;20165;-63
2022/04/27 12:37:29;;;;;;;6.38;2.17;;;12.20;99.90;;;;;;5119833;27;20062;-62
2022/04/27 12:39:40;;;;;;;6.78;2.47;;;12.10;99.90;;;;;;5119438;27;20055;-63
2022/04/27 12:42:08;;;;;;;6.07;2.10;;;12.00;99.90;;;;;;5118095;27;20585;-62
2022/04/27 12:44:42;;;;;;;9.25;2.05;;;12.00;99.90;;;;;;5113849;27;20486;-62
2022/04/27 12:47:10;;;;;;;6.50;1.90;;;12.00;99.90;;;;;;5122511;27;20257;-63
2022/04/27 12:49:41;;;;;;;5.68;2.17;;;12.00;99.90;;;;;;5119722;27;20055;-63
2022/04/27 12:52:30;;;;;;;12.52;1.95;;;11.90;99.90;;;;;;5120964;27;20043;-65
2022/04/27 12:55:07;;;;;;;8.35;2.03;;;11.90;99.90;;;;;;5115016;27;20604;-62
2022/04/27 12:57:52;;;;;;;6.57;1.77;;;11.80;99.90;;;;;;5116779;27;20039;-62
2022/04/27 13:00:21;;;;;;;7.07;2.00;;;11.90;99.90;;;;;;5116079;27;20036;-62
2022/04/27 13:02:48;;;;;;;5.28;2.00;;;11.80;99.90;;;;;;5118629;27;20047;-62
2022/04/27 13:05:14;;;;;;;6.68;2.33;;;11.80;99.90;;;;;;5117402;27;20041;-62
2022/04/27 13:07:40;;;;;;;8.05;1.75;;;11.90;99.90;;;;;;5119385;27;20031;-61
2022/04/27 13:12:51;;;;;;;6.15;2.10;;;12.10;99.90;;;;;;5114938;27;20048;-62
2022/04/27 13:15:17;;;;;;;7.43;2.03;;;12.00;99.90;;;;;;5118514;27;20214;-62